Time;durP1;ratioP1;P1;durP2;ratioP2;P2;SDS_P1;SDS_P2;PMS_P1;PMS_P2;Temp;Humidity;BMP_temperature;BMP_pressure;BME280_temperature;BME280_humidity;BME280_pressure;Samples;Min_cycle;Max_cycle;Signal;HPM_P1;HPM_P2
2022/05/05 00:01:37;;;;;;;;;;;14.80;99.90;;;;;;5069771;28;20321;-77
2022/05/05 00:04:03;;;;;;;;;;;14.80;99.90;;;;;;5074079;28;19909;-77
2022/05/05 00:06:29;;;;;;;;;;;14.80;99.90;;;;;;5073810;28;19912;-77
2022/05/05 00:08:54;;;;;;;;;;;14.80;99.90;;;;;;5072231;28;19923;-76
2022/05/05 00:17:09;;;;;;;;;;;14.80;99.90;;;;;;5071119;28;19935;-77
2022/05/05 00:19:36;;;;;;;;;;;14.80;99.90;;;;;;5074808;28;19913;-77
2022/05/05 00:22:02;;;;;;;;;;;14.90;99.90;;;;;;5070986;28;19912;-76
2022/05/05 00:24:28;;;;;;;;;;;14.90;99.90;;;;;;5071932;28;19920;-77
2022/05/05 00:26:54;;;;;;;;;;;14.90;99.90;;;;;;5070986;28;20323;-77
2022/05/05 00:29:20;;;;;;;;;;;14.90;99.90;;;;;;5069402;28;19924;-76
2022/05/05 00:31:46;;;;;;;;;;;14.90;99.90;;;;;;5071590;28;19912;-76
2022/05/05 00:34:12;;;;;;;;;;;14.90;99.90;;;;;;5070536;28;19965;-77
2022/05/05 00:36:37;;;;;;;;;;;14.80;99.90;;;;;;5069347;28;19916;-77
2022/05/05 00:39:04;;;;;;;;;;;14.80;99.90;;;;;;5071573;28;20256;-77
2022/05/05 00:41:33;;;;;;;;;;;14.80;99.90;;;;;;5074899;28;19992;-77
2022/05/05 00:43:59;;;;;;;;;;;14.80;99.90;;;;;;5064170;28;19912;-77
2022/05/05 00:46:25;;;;;;;;;;;14.80;99.90;;;;;;5081354;28;19912;-77
2022/05/05 00:48:50;;;;;;;;;;;14.80;99.90;;;;;;5072559;28;20374;-76
2022/05/05 00:51:16;;;;;;;;;;;14.80;99.90;;;;;;5069777;28;19917;-77
2022/05/05 00:53:42;;;;;;;;;;;14.80;99.90;;;;;;5072779;28;19909;-77
2022/05/05 00:56:11;;;;;;;;;;;14.80;99.90;;;;;;5072416;28;19916;-76
2022/05/05 00:58:37;;;;;;;;;;;14.70;99.90;;;;;;5063794;28;19919;-77
2022/05/05 01:01:04;;;;;;;;;;;14.70;99.90;;;;;;5068372;28;20504;-76
2022/05/05 01:03:33;;;;;;;;;;;14.70;99.90;;;;;;5067374;28;19979;-77
2022/05/05 01:05:58;;;;;;;;;;;14.70;99.90;;;;;;5068200;28;20263;-76
2022/05/05 01:08:24;;;;;;;;;;;14.70;99.90;;;;;;5070163;28;19923;-76
2022/05/05 01:10:49;;;;;;;;;;;14.70;99.90;;;;;;5071351;28;19912;-77
2022/05/05 01:13:15;;;;;;;;;;;14.70;99.90;;;;;;5067893;28;20031;-77
2022/05/05 01:15:41;;;;;;;;;;;14.70;99.90;;;;;;5073364;28;19912;-77
2022/05/05 01:18:07;;;;;;;;;;;14.60;99.90;;;;;;5070884;28;19926;-77
2022/05/05 01:20:42;;;;;;;;;;;14.50;99.90;;;;;;5069366;28;19912;-77
2022/05/05 01:23:07;;;;;;;;;;;14.50;99.90;;;;;;5075317;28;19916;-77
2022/05/05 01:28:17;;;;;;;;;;;14.60;99.90;;;;;;5067712;28;20222;-77
2022/05/05 01:30:44;;;;;;;;;;;14.60;99.90;;;;;;5069286;28;19912;-76
2022/05/05 01:33:11;;;;;;;;;;;14.60;99.90;;;;;;5070391;28;19912;-77
2022/05/05 01:35:37;;;;;;;;;;;14.50;99.90;;;;;;5070194;28;19912;-76
2022/05/05 01:38:03;;;;;;;;;;;14.50;99.90;;;;;;5069845;28;19932;-76
2022/05/05 01:40:29;;;;;;;;;;;14.50;99.90;;;;;;5069776;28;19912;-76
2022/05/05 01:42:55;;;;;;;;;;;14.40;99.90;;;;;;5072392;28;19913;-76
2022/05/05 01:45:20;;;;;;;;;;;14.40;99.90;;;;;;5071068;28;20396;-75
2022/05/05 01:47:46;;;;;;;;;;;14.50;99.90;;;;;;5069659;28;19920;-76
2022/05/05 01:50:11;;;;;;;;;;;14.50;99.90;;;;;;5070796;28;19916;-77
2022/05/05 01:52:37;;;;;;;;;;;14.40;99.90;;;;;;5070922;28;20176;-75
2022/05/05 01:55:04;;;;;;;;;;;14.50;99.90;;;;;;5069125;28;20310;-77
2022/05/05 01:57:29;;;;;;;;;;;14.50;99.90;;;;;;5077542;28;19919;-76
2022/05/05 01:59:55;;;;;;;;;;;14.50;99.90;;;;;;5068228;28;19972;-77
2022/05/05 02:02:21;;;;;;;;;;;14.50;99.90;;;;;;5070412;28;19920;-77
2022/05/05 02:04:46;;;;;;;;;;;14.40;99.90;;;;;;5069921;28;19913;-77
2022/05/05 02:07:12;;;;;;;;;;;14.40;99.90;;;;;;5072165;28;19909;-77
2022/05/05 02:09:37;;;;;;;;;;;14.30;99.90;;;;;;5068543;28;19920;-77
2022/05/05 02:12:03;;;;;;;;;;;14.30;99.90;;;;;;5069683;28;20370;-77
2022/05/05 02:14:29;;;;;;;;;;;14.40;99.90;;;;;;5069880;28;19920;-77
2022/05/05 02:16:55;;;;;;;;;;;14.30;99.90;;;;;;5068771;28;19913;-77
2022/05/05 02:19:20;;;;;;;;;;;14.30;99.90;;;;;;5076707;28;19921;-76
2022/05/05 02:21:46;;;;;;;;;;;14.30;99.90;;;;;;5082887;28;19935;-76
2022/05/05 02:24:21;;;;;;;;;;;14.30;99.90;;;;;;5072571;28;20104;-77
2022/05/05 02:26:46;;;;;;;;;;;14.30;99.90;;;;;;5087002;28;19916;-77
2022/05/05 02:29:12;;;;;;;;;;;14.30;99.90;;;;;;5074935;28;19948;-76
2022/05/05 02:31:38;;;;;;;;;;;14.30;99.90;;;;;;5084898;28;19912;-76
2022/05/05 02:34:08;;;;;;;;;;;14.20;99.90;;;;;;5081416;28;20567;-76
2022/05/05 02:39:19;;;;;;;;;;;14.10;99.90;;;;;;5071061;28;19937;-76
2022/05/05 02:41:44;;;;;;;;;;;14.10;99.90;;;;;;5069348;28;19909;-77
2022/05/05 02:44:10;;;;;;;;;;;14.10;99.90;;;;;;5070904;28;20357;-77
2022/05/05 02:46:35;;;;;;;;;;;14.10;99.90;;;;;;5069323;28;19914;-78
2022/05/05 02:49:01;;;;;;;;;;;14.00;99.90;;;;;;5070006;28;19920;-77
2022/05/05 02:51:27;;;;;;;;;;;14.10;99.90;;;;;;5068999;28;19957;-78
2022/05/05 02:56:37;;;;;;;;;;;14.10;99.90;;;;;;5072747;28;20389;-77
2022/05/05 02:59:02;;;;;;;;;;;14.10;99.90;;;;;;5073394;28;19940;-76
2022/05/05 03:01:28;;;;;;;;;;;14.10;99.90;;;;;;5072017;28;19916;-77
2022/05/05 03:03:53;;;;;;;;;;;14.10;99.90;;;;;;5073949;28;19948;-77
2022/05/05 03:06:20;;;;;;;;;;;14.20;99.90;;;;;;5074966;28;19908;-76
2022/05/05 03:08:45;;;;;;;;;;;14.20;99.90;;;;;;5074584;28;20382;-76
2022/05/05 03:11:11;;;;;;;;;;;14.20;99.90;;;;;;5073997;28;19946;-77
2022/05/05 03:13:37;;;;;;;;;;;14.10;99.90;;;;;;5074661;28;19999;-77
2022/05/05 03:16:05;;;;;;;;;;;14.10;99.90;;;;;;5070732;28;20250;-77
2022/05/05 03:18:31;;;;;;;;;;;14.00;99.90;;;;;;5071028;28;20055;-77
2022/05/05 03:20:56;;;;;;;;;;;14.00;99.90;;;;;;5086020;28;19916;-76
2022/05/05 03:23:22;;;;;;;;;;;14.00;99.90;;;;;;5074817;28;19917;-76
2022/05/05 03:25:47;;;;;;;;;;;14.00;99.90;;;;;;5075116;28;20533;-76
2022/05/05 03:28:14;;;;;;;;;;;14.00;99.90;;;;;;5072911;28;20014;-76
2022/05/05 03:30:40;;;;;;;;;;;14.00;99.90;;;;;;5077069;28;20289;-76
2022/05/05 03:33:06;;;;;;;;;;;14.00;99.90;;;;;;5076428;28;19948;-75
2022/05/05 03:35:32;;;;;;;;;;;14.00;99.90;;;;;;5078694;28;19914;-75
2022/05/05 03:37:58;;;;;;;;;;;14.00;99.90;;;;;;5078794;28;20520;-76
2022/05/05 03:40:23;;;;;;;;;;;14.00;99.90;;;;;;5075642;28;19962;-76
2022/05/05 03:42:49;;;;;;;;;;;14.10;99.90;;;;;;5074760;28;20520;-76
2022/05/05 03:45:14;;;;;;;;;;;14.10;99.90;;;;;;5080678;28;20343;-76
2022/05/05 03:47:40;;;;;;;;;;;14.00;99.90;;;;;;5072783;28;19913;-76
2022/05/05 03:50:17;;;;;;;;;;;14.00;99.90;;;;;;5069719;28;20342;-77
2022/05/05 03:52:42;;;;;;;;;;;14.00;99.90;;;;;;5073559;28;19920;-76
2022/05/05 03:55:08;;;;;;;;;;;13.90;99.90;;;;;;5071290;28;19913;-77
2022/05/05 03:57:34;;;;;;;;;;;13.90;99.90;;;;;;5073265;28;20289;-77
2022/05/05 04:00:00;;;;;;;;;;;13.90;99.90;;;;;;5073074;28;19948;-77
2022/05/05 04:02:25;;;;;;;;;;;13.90;99.90;;;;;;5073019;28;19930;-77
2022/05/05 04:04:51;;;;;;;;;;;13.90;99.90;;;;;;5077714;28;19908;-77
2022/05/05 04:07:16;;;;;;;;;;;13.90;99.90;;;;;;5073474;28;20417;-78
2022/05/05 04:09:42;;;;;;;;;;;13.90;99.90;;;;;;5071382;28;19916;-77
2022/05/05 04:12:08;;;;;;;;;;;13.90;99.90;;;;;;5076304;28;20317;-78
2022/05/05 04:14:34;;;;;;;;;;;13.90;99.90;;;;;;5072353;28;19930;-77
2022/05/05 04:17:00;;;;;;;;;;;13.90;99.90;;;;;;5073275;28;19909;-76
2022/05/05 04:19:26;;;;;;;;;;;13.90;99.90;;;;;;5074493;28;20343;-78
2022/05/05 04:21:52;;;;;;;;;;;13.90;99.90;;;;;;5069572;28;19920;-77
2022/05/05 04:24:17;;;;;;;;;;;13.80;99.90;;;;;;5072401;28;19912;-76
2022/05/05 04:26:43;;;;;;;;;;;13.90;99.90;;;;;;5071921;28;19976;-77
2022/05/05 04:29:09;;;;;;;;;;;13.90;99.90;;;;;;5070460;28;19916;-77
2022/05/05 04:31:35;;;;;;;;;;;13.90;99.90;;;;;;5069327;28;19913;-77
2022/05/05 04:34:01;;;;;;;;;;;13.90;99.90;;;;;;5067087;28;19913;-77
2022/05/05 04:36:26;;;;;;;;;;;13.90;99.90;;;;;;5072422;28;19908;-77
2022/05/05 04:38:52;;;;;;;;;;;13.90;99.90;;;;;;5073934;28;19922;-77
2022/05/05 04:41:18;;;;;;;;;;;14.00;99.90;;;;;;5072697;28;19924;-77
2022/05/05 04:43:43;;;;;;;;;;;14.00;99.90;;;;;;5072910;28;20481;-76
2022/05/05 04:46:09;;;;;;;;;;;14.10;99.90;;;;;;5067653;28;19920;-77
2022/05/05 04:48:35;;;;;;;;;;;14.10;99.90;;;;;;5077024;28;19913;-76
2022/05/05 04:51:00;;;;;;;;;;;14.10;99.90;;;;;;5067913;28;20486;-77
2022/05/05 04:53:26;;;;;;;;;;;14.10;99.90;;;;;;5072195;28;19912;-77
2022/05/05 04:55:51;;;;;;;;;;;14.10;99.90;;;;;;5070292;28;20370;-77
2022/05/05 04:58:17;;;;;;;;;;;14.20;99.90;;;;;;5074492;28;19920;-76
2022/05/05 05:00:44;;;;;;;;;;;14.30;99.90;;;;;;5073269;28;20298;-76
2022/05/05 05:03:32;;;;;;;;;;;14.40;99.90;;;;;;5080861;28;19912;-77
2022/05/05 05:05:55;;;;;;;;;;;14.30;99.90;;;;;;5089995;28;19920;-76
2022/05/05 05:08:21;;;;;;;;;;;14.40;99.90;;;;;;5085751;28;19984;-77
2022/05/05 05:10:47;;;;;;;;;;;14.50;99.90;;;;;;5087507;28;19923;-76
2022/05/05 05:13:12;;;;;;;;;;;14.50;99.90;;;;;;5089356;28;20262;-75
2022/05/05 05:15:38;;;;;;;;;;;14.60;99.90;;;;;;5087858;28;20203;-77
2022/05/05 05:18:04;;;;;;;;;;;14.60;99.90;;;;;;5088165;28;19908;-77
2022/05/05 05:20:29;;;;;;;;;;;14.70;99.90;;;;;;5087779;28;19912;-76
2022/05/05 05:22:55;;;;;;;;;;;14.80;99.90;;;;;;5090508;28;19927;-77
2022/05/05 05:25:20;;;;;;;;;;;14.90;99.90;;;;;;5090457;28;20329;-75
2022/05/05 05:27:46;;;;;;;;;;;14.90;99.90;;;;;;5088248;28;19920;-76
2022/05/05 05:30:12;;;;;;;;;;;15.00;99.90;;;;;;5092974;28;19913;-77
2022/05/05 05:32:37;;;;;;;;;;;15.00;99.90;;;;;;5089690;28;19913;-76
2022/05/05 05:35:03;;;;;;;;;;;15.10;99.90;;;;;;5086821;28;19912;-75
2022/05/05 05:37:29;;;;;;;;;;;15.20;99.90;;;;;;5078133;28;19934;-78
2022/05/05 05:39:54;;;;;;;;;;;15.30;99.90;;;;;;5083978;28;19909;-77
2022/05/05 05:42:20;;;;;;;;;;;15.30;99.90;;;;;;5074907;28;19917;-76
2022/05/05 05:44:45;;;;;;;;;;;15.40;99.90;;;;;;5075539;28;19908;-77
2022/05/05 05:47:12;;;;;;;;;;;15.50;99.90;;;;;;5087881;28;19926;-76
2022/05/05 05:49:38;;;;;;;;;;;15.50;99.90;;;;;;5085551;28;19927;-76
2022/05/05 05:52:04;;;;;;;;;;;15.60;99.90;;;;;;5091827;28;19909;-76
2022/05/05 05:54:29;;;;;;;;;;;15.70;99.90;;;;;;5090995;28;19991;-77
2022/05/05 05:56:55;;;;;;;;;;;15.80;99.90;;;;;;5091162;28;19912;-77
2022/05/05 05:59:21;;;;;;;;;;;16.00;99.90;;;;;;5083570;28;19924;-76
2022/05/05 06:04:30;;;;;;;;;;;16.30;99.90;;;;;;5094189;28;19916;-78
2022/05/05 06:06:56;;;;;;;;;;;16.40;99.90;;;;;;5089633;28;19972;-74
2022/05/05 06:09:22;;;;;;;;;;;16.50;99.90;;;;;;5077162;28;19936;-76
2022/05/05 06:11:48;;;;;;;;;;;16.70;99.90;;;;;;5075595;28;19981;-76
2022/05/05 06:14:13;;;;;;;;;;;16.80;99.90;;;;;;5073504;28;19916;-76
2022/05/05 06:16:39;;;;;;;;;;;16.90;99.90;;;;;;5069294;28;19908;-76
2022/05/05 06:19:05;;;;;;;;;;;17.10;99.90;;;;;;5069968;28;19959;-76
2022/05/05 06:21:30;;;;;;;;;;;17.20;99.90;;;;;;5068805;28;20346;-76
2022/05/05 06:23:56;;;;;;;;;;;17.30;99.90;;;;;;5069758;28;20282;-76
2022/05/05 06:26:23;;;;;;;;;;;17.50;99.90;;;;;;5073134;28;19938;-77
2022/05/05 06:28:49;;;;;;;;;;;17.60;99.90;;;;;;5069594;28;19916;-76
2022/05/05 06:31:16;;;;;;;;;;;17.80;99.90;;;;;;5068370;28;20382;-75
2022/05/05 06:33:42;;;;;;;;;;;17.90;99.90;;;;;;5072876;28;20015;-76
2022/05/05 06:36:08;;;;;;;;;;;17.90;99.90;;;;;;5068454;28;19916;-76
2022/05/05 06:38:34;;;;;;;;;;;18.10;99.90;;;;;;5072615;28;19912;-76
2022/05/05 06:41:00;;;;;;;;;;;18.20;99.90;;;;;;5068508;28;20408;-76
2022/05/05 06:43:26;;;;;;;;;;;18.20;99.90;;;;;;5058326;28;19995;-76
2022/05/05 06:45:52;;;;;;;;;;;18.20;99.90;;;;;;5069798;28;21288;-76
2022/05/05 06:48:17;;;;;;;;;;;18.20;99.90;;;;;;5071205;28;19927;-75
2022/05/05 06:50:43;;;;;;;;;;;18.20;99.90;;;;;;5072161;28;20270;-76
2022/05/05 06:53:09;;;;;;;;;;;18.30;99.90;;;;;;5070623;28;19962;-76
2022/05/05 06:55:34;;;;;;;;;;;18.40;99.90;;;;;;5069263;28;19971;-75
2022/05/05 06:58:00;;;;;;;;;;;18.60;99.90;;;;;;5070844;28;19912;-76
2022/05/05 07:01:51;;;;;;;;;;;18.80;99.90;;;;;;5069894;28;19918;-76
2022/05/05 07:03:11;;;;;;;;;;;18.60;99.90;;;;;;5067905;28;19912;-74
2022/05/05 07:05:37;;;;;;;;;;;18.60;99.90;;;;;;5066648;28;19992;-75
2022/05/05 07:08:02;;;;;;;;;;;18.80;99.90;;;;;;5070971;28;19913;-76
2022/05/05 07:13:12;;;;;;;;;;;19.10;99.90;;;;;;5068219;28;20341;-76
2022/05/05 07:15:38;;;;;;;;;;;19.30;99.90;;;;;;5071096;28;19955;-76
2022/05/05 07:18:04;;;;;;;;;;;19.40;99.90;;;;;;5070384;28;19912;-75
2022/05/05 07:20:30;;;;;;;;;;;19.30;99.90;;;;;;5070750;28;19927;-77
2022/05/05 07:22:58;;;;;;;;;;;19.40;99.90;;;;;;5071136;28;19912;-75
2022/05/05 07:25:24;;;;;;;;;;;19.50;99.90;;;;;;5072481;28;19914;-76
2022/05/05 07:27:50;;;;;;;;;;;19.70;99.90;;;;;;5072215;28;19917;-76
2022/05/05 07:30:16;;;;;;;;;;;19.70;99.90;;;;;;5086785;28;19916;-75
2022/05/05 07:32:41;;;;;;;;;;;19.80;99.90;;;;;;5090158;28;19908;-75
2022/05/05 07:35:08;;;;;;;;;;;19.80;99.90;;;;;;5089796;28;19912;-75
2022/05/05 07:37:34;;;;;;;;;;;19.90;99.90;;;;;;5087673;28;19940;-75
2022/05/05 07:40:00;;;;;;;;;;;19.90;99.90;;;;;;5087641;28;19914;-75
2022/05/05 07:42:26;;;;;;;;;;;20.00;99.90;;;;;;5081503;28;20354;-75
2022/05/05 07:44:51;;;;;;;;;;;20.00;99.90;;;;;;5078104;28;19916;-75
2022/05/05 07:47:17;;;;;;;;;;;19.90;99.90;;;;;;5073919;28;19959;-75
2022/05/05 07:49:42;;;;;;;;;;;19.60;99.90;;;;;;5078034;28;19913;-76
2022/05/05 07:52:08;;;;;;;;;;;19.60;99.90;;;;;;5073413;28;19912;-76
2022/05/05 07:54:43;;;;;;;;;;;19.60;99.90;;;;;;5072936;28;19916;-76
2022/05/05 07:57:12;;;;;;;;;;;19.60;99.90;;;;;;5072839;28;20101;-76
2022/05/05 07:59:38;;;;;;;;;;;19.70;99.90;;;;;;5071388;28;19912;-68
2022/05/05 08:02:04;;;;;;;;;;;19.90;99.90;;;;;;5066463;28;19913;-68
2022/05/05 08:04:30;;;;;;;;;;;20.00;99.90;;;;;;5070179;28;19924;-69
2022/05/05 08:06:56;;;;;;;;;;;20.10;99.90;;;;;;5072083;28;19912;-69
2022/05/05 08:09:22;;;;;;;;;;;20.10;99.90;;;;;;5070017;28;19916;-70
2022/05/05 08:11:47;;;;;;;;;;;20.30;99.90;;;;;;5073224;28;19916;-69
2022/05/05 08:14:13;;;;;;;;;;;20.40;99.90;;;;;;5072797;28;19909;-68
2022/05/05 08:16:38;;;;;;;;;;;20.50;99.90;;;;;;5071672;28;20000;-69
2022/05/05 08:19:04;;;;;;;;;;;20.70;99.90;;;;;;5072322;28;20295;-71
2022/05/05 08:21:30;;;;;;;;;;;20.90;99.90;;;;;;5070084;28;19916;-70
2022/05/05 08:29:24;;;;;;;;;;;20.70;99.90;;;;;;5075900;28;19978;-69
2022/05/05 08:31:50;;;;;;;;;;;20.70;99.90;;;;;;5074121;28;19913;-70
2022/05/05 08:34:15;;;;;;;;;;;20.90;99.90;;;;;;5072302;28;20374;-69
2022/05/05 08:36:41;;;;;;;;;;;21.10;99.90;;;;;;5072182;28;19915;-70
2022/05/05 08:39:06;;;;;;;;;;;21.20;99.90;;;;;;5072893;28;19930;-69
2022/05/05 08:41:32;;;;;;;;;;;21.10;99.90;;;;;;5073985;28;19934;-70
2022/05/05 08:43:58;;;;;;;;;;;21.20;99.90;;;;;;5073783;28;19923;-70
2022/05/05 08:46:26;;;;;;;;;;;21.10;99.90;;;;;;5072792;28;19909;-70
2022/05/05 08:48:57;;;;;;;;;;;21.00;99.90;;;;;;5073391;28;19924;-70
2022/05/05 08:51:24;;;;;;;;;;;21.00;99.90;;;;;;5070740;28;19915;-70
2022/05/05 08:53:53;;;;;;;;;;;21.20;99.90;;;;;;5069823;28;19957;-70
2022/05/05 08:56:18;;;;;;;;;;;21.30;99.90;;;;;;5067647;28;20323;-70
2022/05/05 08:58:44;;;;;;;;;;;21.20;99.90;;;;;;5072207;28;20003;-69
2022/05/05 09:01:10;;;;;;;;;;;21.10;99.90;;;;;;5073934;28;19912;-70
2022/05/05 09:03:36;;;;;;;;;;;21.20;99.90;;;;;;5079915;28;19909;-70
2022/05/05 09:06:04;;;;;;;;;;;21.20;99.90;;;;;;5073702;28;19912;-70
2022/05/05 09:08:33;;;;;;;;;;;21.40;99.90;;;;;;5072405;28;19955;-69
2022/05/05 09:11:03;;;;;;;;;;;21.40;99.90;;;;;;5067794;28;20030;-70
2022/05/05 09:13:38;;;;;;;;;;;21.50;99.90;;;;;;5064462;28;20381;-69
2022/05/05 09:16:05;;;;;;;;;;;21.30;99.90;;;;;;5072899;28;19991;-71
2022/05/05 09:18:32;;;;;;;;;;;21.30;99.90;;;;;;5072737;28;20118;-69
2022/05/05 09:20:59;;;;;;;;;;;21.40;99.90;;;;;;5071370;28;20271;-70
2022/05/05 09:23:28;;;;;;;;;;;21.60;99.90;;;;;;5070501;28;19966;-69
2022/05/05 09:25:54;;;;;;;;;;;21.90;99.90;;;;;;5070927;28;19912;-70
2022/05/05 09:28:20;;;;;;;;;;;22.00;99.90;;;;;;5071799;28;19969;-71
2022/05/05 09:30:47;;;;;;;;;;;22.10;99.90;;;;;;5070607;28;19909;-71
2022/05/05 09:33:14;;;;;;;;;;;22.30;99.90;;;;;;5071278;28;20354;-70
2022/05/05 09:35:40;;;;;;;;;;;22.60;99.90;;;;;;5068593;28;19920;-70
2022/05/05 09:38:05;;;;;;;;;;;22.60;99.90;;;;;;5069806;28;20151;-70
2022/05/05 09:40:31;;;;;;;;;;;22.90;99.90;;;;;;5070793;28;19912;-72
2022/05/05 09:42:57;;;;;;;;;;;22.70;99.90;;;;;;5069875;28;20267;-71
2022/05/05 09:45:24;;;;;;;;;;;22.40;99.90;;;;;;5072438;28;19908;-71
2022/05/05 09:47:58;;;;;;;;;;;22.00;99.90;;;;;;5071446;28;19987;-70
2022/05/05 09:50:24;;;;;;;;;;;21.90;99.90;;;;;;5070301;28;20335;-71
2022/05/05 09:58:22;;;;;;;;;;;21.80;99.90;;;;;;5071844;28;19957;-70
2022/05/05 10:00:58;;;;;;;;;;;21.70;99.90;;;;;;5069916;28;19912;-70
2022/05/05 10:06:23;;;;;;;;;;;21.60;99.90;;;;;;5070714;28;19965;-70
2022/05/05 10:08:50;;;;;;;;;;;21.60;99.90;;;;;;5069661;28;19921;-70
2022/05/05 10:11:16;;;;;;;;;;;21.70;99.90;;;;;;5074907;28;19909;-70
2022/05/05 10:13:42;;;;;;;;;;;21.70;99.90;;;;;;5070460;28;20044;-71
2022/05/05 10:16:09;;;;;;;;;;;21.80;99.90;;;;;;5073250;28;19916;-71
2022/05/05 10:18:37;;;;;;;;;;;21.90;99.90;;;;;;5073967;28;19958;-71
2022/05/05 10:21:04;;;;;;;;;;;21.80;99.90;;;;;;5073198;28;19922;-71
2022/05/05 10:23:29;;;;;;;;;;;21.70;99.90;;;;;;5071807;28;19958;-71
2022/05/05 10:25:55;;;;;;;;;;;21.70;99.90;;;;;;5068831;28;19917;-70
2022/05/05 10:28:40;;;;;;;;;;;21.70;99.90;;;;;;5070602;28;19968;-72
2022/05/05 10:31:12;;;;;;;;;;;21.60;99.90;;;;;;5072389;28;19912;-70
2022/05/05 10:33:56;;;;;;;;;;;21.50;99.90;;;;;;5070789;28;19999;-70
2022/05/05 10:36:25;;;;;;;;;;;21.40;99.90;;;;;;5072315;28;19913;-70
2022/05/05 10:38:52;;;;;;;;;;;21.40;99.90;;;;;;5076230;28;19912;-70
2022/05/05 10:41:29;;;;;;;;;;;21.40;99.90;;;;;;5081507;28;20324;-70
2022/05/05 10:44:13;;;;;;;;;;;21.50;99.90;;;;;;5074796;28;20531;-70
2022/05/05 10:46:54;;;;;;;;;;;21.60;99.90;;;;;;5066403;28;20007;-70
2022/05/05 10:49:41;;;;;;;;;;;21.70;99.90;;;;;;5069361;28;19919;-70
2022/05/05 10:52:16;;;;;;;;;;;21.60;99.90;;;;;;5080964;28;19943;-70
2022/05/05 10:54:46;;;;;;;;;;;21.60;99.90;;;;;;5067900;28;20066;-66
2022/05/05 10:57:27;;;;;;;;;;;21.40;99.90;;;;;;5069741;28;19950;-68
2022/05/05 11:00:11;;;;;;;;;;;21.40;99.90;;;;;;5075624;28;19970;-68
2022/05/05 11:02:37;;;;;;;;;;;21.50;99.90;;;;;;5063803;28;19909;-67
2022/05/05 11:05:22;;;;;;;;;;;21.60;99.90;;;;;;5069526;28;19912;-69
2022/05/05 11:07:51;;;;;;;;;;;21.50;99.90;;;;;;5070579;28;19909;-67
2022/05/05 11:10:36;;;;;;;;;;;21.40;99.90;;;;;;5070173;28;19912;-67
2022/05/05 11:13:01;;;;;;;;;;;21.40;99.90;;;;;;5064851;28;20523;-66
2022/05/05 11:21:49;;;;;;;;;;;21.50;99.90;;;;;;4991444;28;19914;-66
2022/05/05 11:24:24;;;;;;;;;;;21.10;99.90;;;;;;5057030;28;19935;-67
2022/05/05 11:26:50;;;;;;;;;;;21.10;99.90;;;;;;5070633;28;19963;-67
2022/05/05 11:29:16;;;;;;;;;;;21.10;99.90;;;;;;5073242;28;20394;-68
2022/05/05 11:31:55;;;;;;;;;;;21.30;99.90;;;;;;5072779;28;19913;-67
2022/05/05 11:34:21;;;;;;;;;;;21.60;99.90;;;;;;5076728;28;21243;-67
2022/05/05 11:36:47;;;;;;;;;;;21.50;99.90;;;;;;5076331;28;20361;-65
2022/05/05 11:39:19;;;;;;;;;;;21.30;99.90;;;;;;5076867;28;20379;-68
2022/05/05 11:41:55;;;;;;;;;;;21.20;99.90;;;;;;5076748;28;19963;-66
2022/05/05 11:44:21;;;;;;;;;;;21.40;99.90;;;;;;5077343;28;19920;-66
2022/05/05 11:46:47;;;;;;;;;;;21.20;99.90;;;;;;5073103;28;20381;-67
2022/05/05 11:49:13;;;;;;;;;;;21.20;99.90;;;;;;5072046;28;19990;-66
2022/05/05 11:51:38;;;;;;;;;;;21.30;99.90;;;;;;5076194;28;20400;-66
2022/05/05 11:54:12;;;;;;;;;;;21.20;99.90;;;;;;5074823;28;19962;-69
2022/05/05 11:56:42;;;;;;;;;;;21.20;99.90;;;;;;5070234;28;19919;-66
2022/05/05 12:01:54;;;;;;;;;;;20.80;99.90;;;;;;5071939;28;20401;-66
2022/05/05 12:04:22;;;;;;;;;;;20.60;99.90;;;;;;5073812;28;20003;-67
2022/05/05 12:06:48;;;;;;;;;;;20.40;99.90;;;;;;5074081;28;19917;-67
2022/05/05 12:09:14;;;;;;;;;;;20.20;99.90;;;;;;5073930;28;20363;-66
2022/05/05 12:11:39;;;;;;;;;;;20.20;99.90;;;;;;5073880;28;19909;-66
2022/05/05 12:14:06;;;;;;;;;;;20.20;99.90;;;;;;5073650;28;19909;-66
2022/05/05 12:16:43;;;;;;;;;;;20.30;99.90;;;;;;5075147;28;20014;-66
2022/05/05 12:19:12;;;;;;;;;;;20.20;99.90;;;;;;5073752;28;19939;-66
2022/05/05 12:21:50;;;;;;;;;;;20.00;99.90;;;;;;5071132;28;19961;-68
2022/05/05 12:24:15;;;;;;;;;;;20.10;99.90;;;;;;5069224;28;19912;-67
2022/05/05 12:26:41;;;;;;;;;;;20.00;99.90;;;;;;5070181;28;19970;-67
2022/05/05 12:29:17;;;;;;;;;;;19.90;99.90;;;;;;5070946;28;19917;-67
2022/05/05 12:31:55;;;;;;;;;;;20.00;99.90;;;;;;5072603;28;19913;-68
2022/05/05 12:34:22;;;;;;;;;;;20.00;99.90;;;;;;5072316;28;19916;-66
2022/05/05 12:36:49;;;;;;;;;;;20.20;99.90;;;;;;5073780;28;20011;-68
2022/05/05 12:39:15;;;;;;;;;;;20.20;99.90;;;;;;5072751;28;19913;-68
2022/05/05 12:41:56;;;;;;;;;;;20.20;99.90;;;;;;5074463;28;19995;-67
2022/05/05 12:44:22;;;;;;;;;;;20.10;99.90;;;;;;5075050;28;19916;-67
2022/05/05 12:46:51;;;;;;;;;;;20.20;99.90;;;;;;5076114;28;19969;-68
2022/05/05 12:49:33;;;;;;;;;;;20.20;99.90;;;;;;5072319;28;19916;-67
2022/05/05 12:51:59;;;;;;;;;;;20.20;99.90;;;;;;5076124;28;19973;-68
2022/05/05 12:59:56;;;;;;;;;;;20.20;99.90;;;;;;5073031;28;19919;-67
2022/05/05 13:02:22;;;;;;;;;;;20.20;99.90;;;;;;5077661;28;20551;-67
2022/05/05 13:07:24;;;;;;;;;;;20.30;99.90;;;;;;5042701;23;19925;-69
2022/05/05 13:09:51;;;;;;;;;;;20.10;99.90;;;;;;5014236;28;20386;-70
2022/05/05 13:12:17;;;;;;;;;;;20.20;99.90;;;;;;5011525;28;19913;-70
2022/05/05 13:14:42;;;;;;;;;;;20.10;99.90;;;;;;5022569;28;19917;-70
2022/05/05 13:17:08;;;;;;;;;;;20.20;99.90;;;;;;5022798;28;20012;-70
2022/05/05 13:19:33;;;;;;;;;;;20.20;99.90;;;;;;5016780;28;19913;-70
2022/05/05 13:21:59;;;;;;;;;;;20.20;99.90;;;;;;5019797;28;20382;-71
2022/05/05 13:24:25;;;;;;;;;;;20.40;99.90;;;;;;5024953;28;19920;-70
2022/05/05 13:26:51;;;;;;;;;;;20.30;99.90;;;;;;5012082;28;20370;-70
2022/05/05 13:29:16;;;;;;;;;;;20.40;99.90;;;;;;5021629;28;19960;-70
2022/05/05 13:31:42;;;;;;;;;;;20.50;99.90;;;;;;5022399;28;19909;-70
2022/05/05 13:34:08;;;;;;;;;;;20.50;99.90;;;;;;5023172;28;19913;-70
2022/05/05 13:36:35;;;;;;;;;;;20.60;99.90;;;;;;5021738;28;20385;-70
2022/05/05 13:39:01;;;;;;;;;;;20.70;99.90;;;;;;5020489;28;19921;-71
2022/05/05 13:41:26;;;;;;;;;;;20.70;99.90;;;;;;5022905;28;19913;-70
2022/05/05 13:43:52;;;;;;;;;;;20.70;99.90;;;;;;5016814;28;20004;-70
2022/05/05 13:46:18;;;;;;;;;;;20.60;99.90;;;;;;5006529;28;20003;-70
2022/05/05 13:48:43;;;;;;;;;;;20.60;99.90;;;;;;5018372;28;20040;-71
2022/05/05 13:51:09;;;;;;;;;;;20.50;99.90;;;;;;5014750;28;19917;-70
2022/05/05 13:53:34;;;;;;;;;;;20.60;99.90;;;;;;5013636;28;19913;-70
2022/05/05 13:56:00;;;;;;;;;;;20.60;99.90;;;;;;5015953;28;19960;-69
2022/05/05 13:58:26;;;;;;;;;;;20.70;99.90;;;;;;5017315;28;19936;-69
2022/05/05 14:00:52;;;;;;;;;;;20.60;99.90;;;;;;5007782;28;20343;-70
2022/05/05 14:03:17;;;;;;;;;;;20.60;99.90;;;;;;5024951;28;20001;-70
2022/05/05 14:05:43;;;;;;;;;;;20.60;99.90;;;;;;5021442;28;19917;-70
2022/05/05 14:13:38;;;;;;;;;;;20.30;99.90;;;;;;5011842;28;19987;-70
2022/05/05 14:16:05;;;;;;;;;;;20.30;99.90;;;;;;5022597;28;20354;-70
2022/05/05 14:18:30;;;;;;;;;;;20.30;99.90;;;;;;5018445;28;19914;-70
2022/05/05 14:20:56;;;;;;;;;;;20.40;99.90;;;;;;5014489;28;19913;-71
2022/05/05 14:23:21;;;;;;;;;;;20.20;99.90;;;;;;4994383;28;20330;-75
2022/05/05 14:25:47;;;;;;;;;;;20.10;99.90;;;;;;5014365;28;19914;-70
2022/05/05 14:28:13;;;;;;;;;;;20.10;99.90;;;;;;5014376;28;20354;-70
2022/05/05 14:30:38;;;;;;;;;;;20.10;99.90;;;;;;5013909;28;19992;-71
2022/05/05 14:33:04;;;;;;;;;;;20.10;99.90;;;;;;5013160;28;20007;-69
2022/05/05 14:35:30;;;;;;;;;;;20.10;99.90;;;;;;5015652;28;19913;-70
2022/05/05 14:37:56;;;;;;;;;;;20.10;99.90;;;;;;5006852;28;20008;-70
2022/05/05 14:40:22;;;;;;;;;;;20.20;99.90;;;;;;5027059;28;19921;-70
2022/05/05 14:42:47;;;;;;;;;;;20.30;99.90;;;;;;5022765;28;19913;-70
2022/05/05 14:45:17;;;;;;;;;;;20.20;99.90;;;;;;5007659;28;19936;-69
2022/05/05 14:47:46;;;;;;;;;;;20.10;99.90;;;;;;5028521;28;20293;-70
2022/05/05 14:50:11;;;;;;;;;;;20.20;99.90;;;;;;5018350;28;20181;-70
2022/05/05 14:52:37;;;;;;;;;;;20.10;99.90;;;;;;5014796;28;19914;-71
2022/05/05 14:55:04;;;;;;;;;;;20.10;99.90;;;;;;5011884;28;19917;-70
2022/05/05 14:57:30;;;;;;;;;;;20.20;99.90;;;;;;5023851;28;19914;-70
2022/05/05 14:59:57;;;;;;;;;;;20.30;99.90;;;;;;5003169;28;19913;-70
2022/05/05 15:02:22;;;;;;;;;;;20.40;99.90;;;;;;5033553;28;20076;-71
2022/05/05 15:04:48;;;;;;;;;;;20.50;99.90;;;;;;5025143;28;19920;-74
2022/05/05 15:07:14;;;;;;;;;;;20.40;99.90;;;;;;5023901;28;20400;-70
2022/05/05 15:09:40;;;;;;;;;;;20.30;99.90;;;;;;5028857;28;19928;-70
2022/05/05 15:12:06;;;;;;;;;;;20.40;99.90;;;;;;5000513;28;19917;-70